createdAt,value
2023-05-17T00:00:40.003Z,2.10
2023-05-17T00:03:07.211Z,1.90
2023-05-17T00:05:36.512Z,2.17
2023-05-17T00:08:06.354Z,1.90
2023-05-17T00:10:35.822Z,2.20
2023-05-17T00:13:09.850Z,2.00
2023-05-17T00:15:41.342Z,2.57
2023-05-17T00:18:10.809Z,2.27
2023-05-17T00:20:38.001Z,2.10
2023-05-17T00:23:07.512Z,2.20
2023-05-17T00:25:37.189Z,2.30
2023-05-17T00:28:12.397Z,2.37
2023-05-17T00:30:42.656Z,2.20
2023-05-17T00:33:14.506Z,2.33
2023-05-17T00:35:41.672Z,2.70
2023-05-17T00:38:09.000Z,2.20
2023-05-17T00:40:38.284Z,2.50
2023-05-17T00:43:05.550Z,3.00
2023-05-17T00:45:37.268Z,2.60
2023-05-17T00:48:10.289Z,3.00
2023-05-17T00:50:39.624Z,2.80
2023-05-17T00:53:16.260Z,3.00
2023-05-17T00:55:48.773Z,3.20
2023-05-17T00:58:16.777Z,3.10
2023-05-17T01:00:46.912Z,3.30
2023-05-17T01:03:14.207Z,3.37
2023-05-17T01:05:44.958Z,3.60
2023-05-17T01:08:12.139Z,3.57
2023-05-17T01:11:04.468Z,3.23
2023-05-17T01:13:40.671Z,4.40
2023-05-17T01:16:29.950Z,4.17
2023-05-17T01:19:17.348Z,4.33
2023-05-17T01:22:25.016Z,3.97
2023-05-17T01:25:23.402Z,4.10
2023-05-17T01:27:58.821Z,4.47
2023-05-17T01:30:29.558Z,3.53
2023-05-17T01:33:00.929Z,4.60
2023-05-17T01:35:28.507Z,3.90
2023-05-17T01:37:58.035Z,3.80
2023-05-17T01:40:28.108Z,4.17
2023-05-17T01:43:05.024Z,4.20
2023-05-17T01:45:49.109Z,3.83
2023-05-17T01:48:25.949Z,4.83
2023-05-17T01:50:56.641Z,4.07
2023-05-17T01:53:29.233Z,4.23
2023-05-17T01:56:07.710Z,4.30
2023-05-17T01:58:44.983Z,4.33
2023-05-17T02:01:18.478Z,3.87
2023-05-17T02:03:52.398Z,4.23
2023-05-17T02:06:19.705Z,4.27
2023-05-17T02:08:49.097Z,4.40
2023-05-17T02:11:18.498Z,4.87
2023-05-17T02:13:45.910Z,4.40
2023-05-17T02:16:13.054Z,4.20
2023-05-17T02:18:40.554Z,4.70
2023-05-17T02:21:10.408Z,4.30
2023-05-17T02:23:40.208Z,4.80
2023-05-17T02:26:09.461Z,4.87
2023-05-17T02:28:36.617Z,5.07
2023-05-17T02:31:10.823Z,5.10
2023-05-17T02:33:43.091Z,4.20
2023-05-17T02:36:10.523Z,4.80
2023-05-17T02:38:37.668Z,4.83
2023-05-17T02:41:07.574Z,4.67
2023-05-17T02:43:34.795Z,4.83
2023-05-17T02:46:04.169Z,5.10
2023-05-17T02:48:33.859Z,5.10
2023-05-17T02:51:05.849Z,5.37
2023-05-17T02:53:35.199Z,5.60
2023-05-17T02:56:07.543Z,5.63
2023-05-17T02:58:34.691Z,5.03
2023-05-17T03:01:04.469Z,4.93
2023-05-17T03:03:34.389Z,5.77
2023-05-17T03:06:06.449Z,5.13
2023-05-17T03:08:33.604Z,5.23
2023-05-17T03:11:00.903Z,5.43
2023-05-17T03:13:30.285Z,5.27
2023-05-17T03:16:02.375Z,5.17
2023-05-17T03:18:29.809Z,5.60
2023-05-17T03:20:56.997Z,5.68
2023-05-17T03:23:26.562Z,5.03
2023-05-17T03:26:01.244Z,5.07
2023-05-17T03:28:28.456Z,5.10
2023-05-17T03:30:58.190Z,5.27
2023-05-17T03:33:27.756Z,4.77
2023-05-17T03:35:55.013Z,5.60
2023-05-17T03:38:23.226Z,4.97
2023-05-17T03:40:53.547Z,5.83
2023-05-17T03:43:22.789Z,4.80
2023-05-17T03:45:52.397Z,4.73
2023-05-17T03:48:21.818Z,5.30
2023-05-17T03:50:49.184Z,4.80
2023-05-17T03:53:19.475Z,5.37
2023-05-17T03:55:46.641Z,5.03
2023-05-17T03:58:13.830Z,4.80
2023-05-17T04:00:43.261Z,5.10
2023-05-17T04:03:16.901Z,5.47
2023-05-17T04:05:46.629Z,5.07
2023-05-17T04:08:16.515Z,5.60
2023-05-17T04:10:43.697Z,4.80
2023-05-17T04:13:10.930Z,5.13
2023-05-17T04:15:40.417Z,5.03
2023-05-17T04:18:07.585Z,6.00
2023-05-17T04:20:34.817Z,5.93
2023-05-17T04:23:04.274Z,5.80
2023-05-17T04:25:31.818Z,5.60
2023-05-17T04:28:01.464Z,5.60
2023-05-17T04:30:31.561Z,5.90
2023-05-17T04:33:01.138Z,5.43
2023-05-17T04:35:30.985Z,5.63
2023-05-17T04:38:02.917Z,5.60
2023-05-17T04:40:33.077Z,5.07
2023-05-17T04:43:02.813Z,5.97
2023-05-17T04:45:30.918Z,6.27
2023-05-17T04:48:01.663Z,5.50
2023-05-17T04:50:33.496Z,5.33
2023-05-17T04:53:00.692Z,5.70
2023-05-17T04:55:30.777Z,5.53
2023-05-17T04:58:00.651Z,5.03
2023-05-17T05:00:28.003Z,5.60
2023-05-17T05:02:57.344Z,5.93
2023-05-17T05:05:25.530Z,5.63
2023-05-17T05:07:52.717Z,5.67
2023-05-17T05:10:20.023Z,5.17
2023-05-17T05:12:47.175Z,5.90
2023-05-17T05:15:16.558Z,6.00
2023-05-17T05:17:51.239Z,5.60
2023-05-17T05:20:27.718Z,6.00
2023-05-17T05:22:58.548Z,6.27
2023-05-17T05:25:29.008Z,6.10
2023-05-17T05:27:56.349Z,5.80
2023-05-17T05:30:26.008Z,6.57
2023-05-17T05:32:55.377Z,6.13
2023-05-17T05:35:30.886Z,6.90
2023-05-17T05:37:59.351Z,6.57
2023-05-17T05:40:29.189Z,6.77
2023-05-17T05:42:58.745Z,7.20
2023-05-17T05:45:28.107Z,7.50
2023-05-17T05:47:57.676Z,6.13
2023-05-17T05:50:24.904Z,6.90
2023-05-17T05:53:10.307Z,6.47
2023-05-17T05:55:47.497Z,6.50
2023-05-17T05:58:17.231Z,6.67
2023-05-17T06:00:44.354Z,6.53
2023-05-17T06:03:11.516Z,6.00
2023-05-17T06:05:41.214Z,6.90
2023-05-17T06:08:08.579Z,6.33
2023-05-17T06:10:38.272Z,7.07
2023-05-17T06:13:05.549Z,7.30
2023-05-17T06:15:33.013Z,6.67
2023-05-17T06:18:05.259Z,6.43
2023-05-17T06:20:32.605Z,6.10
2023-05-17T06:22:59.898Z,6.90
2023-05-17T06:25:29.575Z,6.07
2023-05-17T06:27:56.986Z,6.30
2023-05-17T06:30:24.353Z,6.57
2023-05-17T06:32:51.592Z,6.80
2023-05-17T06:35:18.930Z,6.53
2023-05-17T06:37:46.130Z,6.53
2023-05-17T06:40:17.149Z,5.67
2023-05-17T06:42:51.487Z,6.77
2023-05-17T06:45:27.152Z,6.00
2023-05-17T06:47:56.841Z,6.43
2023-05-17T06:50:28.629Z,5.60
2023-05-17T06:53:00.805Z,5.90
2023-05-17T06:55:30.240Z,6.27
2023-05-17T06:58:03.485Z,5.80
2023-05-17T07:00:33.411Z,5.60
2023-05-17T07:03:03.018Z,6.50
2023-05-17T07:05:31.074Z,6.05
2023-05-17T07:07:59.464Z,6.30
2023-05-17T07:10:29.031Z,6.78
2023-05-17T07:12:59.268Z,5.93
2023-05-17T07:15:28.921Z,6.10
2023-05-17T07:17:56.370Z,5.57
2023-05-17T07:20:28.578Z,6.63
2023-05-17T07:22:56.305Z,5.90
2023-05-17T07:25:25.779Z,5.80
2023-05-17T07:27:53.006Z,6.67
2023-05-17T07:30:20.329Z,6.50
2023-05-17T07:32:50.284Z,5.30
2023-05-17T07:35:19.224Z,5.32
2023-05-17T07:37:49.714Z,5.30
2023-05-17T07:40:24.315Z,5.75
2023-05-17T07:42:54.008Z,5.17
2023-05-17T07:45:21.339Z,4.50
2023-05-17T07:47:50.902Z,4.40
2023-05-17T07:50:18.190Z,4.00
2023-05-17T07:52:50.022Z,4.07
2023-05-17T07:55:20.661Z,3.63
2023-05-17T07:57:49.930Z,4.57
2023-05-17T08:00:20.092Z,4.35
2023-05-17T08:02:49.492Z,4.03
2023-05-17T08:05:16.698Z,4.30
2023-05-17T08:07:46.710Z,3.42
2023-05-17T08:10:20.679Z,3.55
2023-05-17T08:12:50.291Z,3.63
2023-05-17T08:15:17.685Z,3.53
2023-05-17T08:17:44.875Z,3.90
2023-05-17T08:20:12.739Z,3.53
2023-05-17T08:22:40.801Z,3.33
2023-05-17T08:25:08.274Z,3.35
2023-05-17T08:27:41.320Z,3.85
2023-05-17T08:30:29.289Z,3.83
2023-05-17T08:32:59.450Z,3.67
2023-05-17T08:35:28.834Z,3.92
2023-05-17T08:37:58.536Z,3.28
2023-05-17T08:40:28.601Z,4.13
2023-05-17T08:42:56.155Z,4.05
2023-05-17T08:45:30.652Z,3.60
2023-05-17T08:48:01.704Z,4.25
2023-05-17T08:50:35.239Z,3.88
2023-05-17T08:53:02.873Z,3.55
2023-05-17T08:55:37.621Z,4.82
2023-05-17T08:58:07.188Z,3.83
2023-05-17T09:00:35.496Z,4.18
2023-05-17T09:03:06.460Z,4.13
2023-05-17T09:05:36.599Z,4.13
2023-05-17T09:08:14.253Z,3.13
2023-05-17T09:10:46.132Z,3.40
2023-05-17T09:13:13.593Z,2.97
2023-05-17T09:15:49.503Z,3.13
2023-05-17T09:18:19.650Z,3.17
2023-05-17T09:20:54.484Z,3.10
2023-05-17T09:23:22.663Z,2.80
2023-05-17T09:25:50.356Z,2.60
2023-05-17T09:28:22.522Z,3.08
2023-05-17T09:30:52.785Z,2.72
2023-05-17T09:33:23.191Z,2.88
2023-05-17T09:35:53.140Z,2.50
2023-05-17T09:38:28.337Z,2.35
2023-05-17T09:41:02.655Z,2.83
2023-05-17T09:43:35.126Z,2.92
2023-05-17T09:46:07.813Z,2.60
2023-05-17T09:48:38.655Z,3.03
2023-05-17T09:51:11.204Z,2.50
2023-05-17T09:53:42.428Z,2.88
2023-05-17T09:56:12.160Z,2.80
2023-05-17T09:58:45.557Z,2.80
2023-05-17T10:01:18.572Z,3.25
2023-05-17T10:03:51.032Z,3.17
2023-05-17T10:06:38.519Z,2.03
2023-05-17T10:09:17.131Z,2.90
2023-05-17T10:11:50.995Z,2.97
2023-05-17T10:14:22.589Z,2.83
2023-05-17T10:16:54.216Z,2.25
2023-05-17T10:19:22.014Z,2.28
2023-05-17T10:21:51.834Z,3.22
2023-05-17T10:24:22.874Z,2.67
2023-05-17T10:26:55.885Z,2.38
2023-05-17T10:29:23.915Z,3.13
2023-05-17T10:31:51.975Z,2.92
2023-05-17T10:34:20.656Z,3.00
2023-05-17T10:36:53.322Z,2.40
2023-05-17T10:39:22.223Z,2.35
2023-05-17T10:42:13.000Z,2.35
2023-05-17T10:44:44.474Z,2.38
2023-05-17T10:47:15.062Z,2.17
2023-05-17T10:49:47.993Z,2.97
2023-05-17T10:52:21.222Z,2.40
2023-05-17T10:54:51.807Z,2.42
2023-05-17T11:00:22.622Z,2.50
2023-05-17T11:02:52.018Z,2.40
2023-05-17T11:05:28.111Z,2.67
2023-05-17T11:08:17.622Z,3.08
2023-05-17T11:11:07.922Z,2.35
2023-05-17T11:13:35.301Z,2.58
2023-05-17T11:16:07.968Z,3.00
2023-05-17T11:19:06.353Z,2.75
2023-05-17T11:21:33.854Z,2.30
2023-05-17T11:24:07.173Z,2.90
2023-05-17T11:26:47.370Z,2.83
2023-05-17T11:29:17.634Z,2.97
2023-05-17T11:31:52.554Z,2.97
2023-05-17T11:34:25.558Z,2.83
2023-05-17T11:36:58.476Z,3.10
2023-05-17T11:39:26.925Z,2.60
2023-05-17T11:41:56.138Z,2.72
2023-05-17T11:44:33.222Z,2.50
2023-05-17T11:47:09.594Z,2.45
2023-05-17T11:49:40.957Z,2.67
2023-05-17T11:52:10.385Z,1.77
2023-05-17T11:54:40.280Z,2.90
2023-05-17T11:57:11.714Z,2.60
2023-05-17T11:59:40.213Z,2.60
2023-05-17T12:02:07.718Z,2.80
2023-05-17T12:04:39.316Z,2.95
2023-05-17T12:07:10.933Z,1.90
2023-05-17T12:09:40.553Z,2.35
2023-05-17T12:12:10.856Z,2.22
2023-05-17T12:14:38.396Z,2.15
2023-05-17T12:17:13.609Z,2.30
2023-05-17T12:19:41.300Z,1.92
2023-05-17T12:22:12.514Z,1.80
2023-05-17T12:24:43.617Z,2.17
2023-05-17T12:27:24.673Z,1.80
2023-05-17T12:29:52.008Z,1.75
2023-05-17T12:32:21.888Z,2.10
2023-05-17T12:34:49.607Z,2.13
2023-05-17T12:37:19.577Z,1.80
2023-05-17T12:39:52.599Z,2.00
2023-05-17T12:42:22.451Z,1.92
2023-05-17T12:44:51.865Z,2.25
2023-05-17T12:47:19.218Z,1.67
2023-05-17T12:49:54.900Z,2.15
2023-05-17T12:52:22.300Z,2.00
2023-05-17T12:54:52.522Z,1.52
2023-05-17T12:57:24.394Z,1.70
2023-05-17T12:59:54.847Z,1.70
2023-05-17T13:02:31.772Z,1.85
2023-05-17T13:04:59.466Z,1.30
2023-05-17T13:07:32.057Z,1.67
2023-05-17T13:10:02.633Z,1.90
2023-05-17T13:12:29.972Z,1.92
2023-05-17T13:15:00.471Z,1.88
2023-05-17T13:17:40.637Z,1.67
2023-05-17T13:20:11.348Z,1.98
2023-05-17T13:22:48.938Z,1.88
2023-05-17T13:25:16.394Z,1.50
2023-05-17T13:27:50.685Z,1.95
2023-05-17T13:30:20.271Z,1.80
2023-05-17T13:32:50.958Z,2.05
2023-05-17T13:35:23.010Z,1.88
2023-05-17T13:37:53.401Z,2.50
2023-05-17T13:40:25.260Z,2.00
2023-05-17T13:42:54.853Z,1.63
2023-05-17T13:45:24.636Z,1.98
2023-05-17T13:47:53.990Z,2.13
2023-05-17T13:50:21.801Z,1.90
2023-05-17T13:52:49.019Z,1.92
2023-05-17T13:55:16.257Z,1.85
2023-05-17T13:57:46.024Z,2.05
2023-05-17T14:00:13.702Z,2.15
2023-05-17T14:02:41.212Z,2.00
2023-05-17T14:05:09.973Z,1.70
2023-05-17T14:07:41.582Z,1.70
2023-05-17T14:10:12.606Z,1.98
2023-05-17T14:12:41.097Z,1.95
2023-05-17T14:15:11.479Z,2.05
2023-05-17T14:17:38.993Z,1.92
2023-05-17T14:20:07.252Z,1.73
2023-05-17T14:22:39.261Z,1.90
2023-05-17T14:25:09.094Z,1.58
2023-05-17T14:27:36.561Z,2.10
2023-05-17T14:30:05.087Z,2.25
2023-05-17T14:32:35.491Z,1.67
2023-05-17T14:35:09.258Z,2.13
2023-05-17T14:37:39.215Z,1.70
2023-05-17T14:40:10.055Z,1.85
2023-05-17T14:42:40.123Z,1.73
2023-05-17T14:45:11.974Z,1.60
2023-05-17T14:47:41.669Z,2.10
2023-05-17T14:50:13.615Z,2.60
2023-05-17T14:52:40.743Z,1.70
2023-05-17T14:55:09.003Z,2.30
2023-05-17T14:57:37.014Z,2.15
2023-05-17T15:00:10.450Z,2.05
2023-05-17T15:02:42.458Z,2.30
2023-05-17T15:05:14.737Z,2.08
2023-05-17T15:07:44.158Z,2.20
2023-05-17T15:10:13.595Z,2.00
2023-05-17T15:12:45.783Z,2.10
2023-05-17T15:15:15.662Z,1.88
2023-05-17T15:17:45.084Z,1.67
2023-05-17T15:20:12.667Z,1.60
2023-05-17T15:22:44.576Z,2.20
2023-05-17T15:25:11.772Z,2.30
2023-05-17T15:27:38.953Z,1.88
2023-05-17T15:30:11.804Z,2.30
2023-05-17T15:32:42.676Z,1.92
2023-05-17T15:35:12.112Z,2.13
2023-05-17T15:37:39.305Z,1.52
2023-05-17T15:40:09.593Z,1.80
2023-05-17T15:42:40.120Z,1.90
2023-05-17T15:45:07.854Z,1.85
2023-05-17T15:47:43.042Z,2.08
2023-05-17T15:50:13.964Z,1.70
2023-05-17T15:52:47.493Z,1.63
2023-05-17T15:55:16.991Z,2.00
2023-05-17T15:57:47.204Z,1.92
2023-05-17T16:00:14.633Z,1.90
2023-05-17T16:02:43.931Z,1.85
2023-05-17T16:05:21.456Z,1.98
2023-05-17T16:07:53.301Z,1.75
2023-05-17T16:10:20.472Z,1.90
2023-05-17T16:12:47.754Z,1.67
2023-05-17T16:15:17.717Z,1.92
2023-05-17T16:17:52.335Z,1.65
2023-05-17T16:20:22.257Z,2.25
2023-05-17T16:22:57.431Z,2.67
2023-05-17T16:25:25.195Z,2.00
2023-05-17T16:27:56.964Z,1.90
2023-05-17T16:30:24.237Z,2.28
2023-05-17T16:32:51.544Z,2.00
2023-05-17T16:35:22.509Z,1.75
2023-05-17T16:37:50.174Z,2.20
2023-05-17T16:40:19.583Z,2.17
2023-05-17T16:42:49.002Z,1.70
2023-05-17T16:45:16.235Z,2.50
2023-05-17T16:47:48.030Z,2.35
2023-05-17T16:50:20.802Z,2.28
2023-05-17T16:52:48.011Z,1.98
2023-05-17T16:55:17.641Z,2.20
2023-05-17T16:57:49.534Z,2.35
2023-05-17T17:00:17.585Z,2.35
2023-05-17T17:02:46.033Z,2.10
2023-05-17T17:05:13.275Z,2.00
2023-05-17T17:07:47.268Z,2.47
2023-05-17T17:10:16.970Z,2.28
2023-05-17T17:12:44.149Z,2.08
2023-05-17T17:15:14.520Z,2.50
2023-05-17T17:17:45.699Z,2.80
2023-05-17T17:20:15.979Z,2.22
2023-05-17T17:22:43.172Z,2.17
2023-05-17T17:25:15.219Z,2.25
2023-05-17T17:27:44.596Z,2.72
2023-05-17T17:30:14.360Z,2.00
2023-05-17T17:32:41.595Z,2.60
2023-05-17T17:35:11.658Z,2.15
2023-05-17T17:37:38.771Z,2.25
2023-05-17T17:40:06.608Z,2.63
2023-05-17T17:42:38.933Z,2.20
2023-05-17T17:45:09.253Z,2.22
2023-05-17T17:47:39.164Z,1.70
2023-05-17T17:50:11.469Z,2.80
2023-05-17T17:52:40.751Z,2.30
2023-05-17T17:55:10.179Z,2.10
2023-05-17T17:57:42.042Z,2.40
2023-05-17T18:00:11.970Z,2.10
2023-05-17T18:02:44.131Z,2.30
2023-05-17T18:05:13.758Z,2.63
2023-05-17T18:07:43.131Z,2.28
2023-05-17T18:10:10.840Z,2.45
2023-05-17T18:12:40.358Z,2.40
2023-05-17T18:15:07.790Z,3.20
2023-05-17T18:17:35.060Z,2.47
2023-05-17T18:20:06.301Z,2.30
2023-05-17T18:22:36.277Z,2.50
2023-05-17T18:25:03.513Z,2.50
2023-05-17T18:27:33.477Z,2.63
2023-05-17T18:30:03.572Z,2.47
2023-05-17T18:32:30.949Z,2.15
2023-05-17T18:34:58.354Z,2.28
2023-05-17T18:37:25.791Z,2.40
2023-05-17T18:39:55.532Z,2.67
2023-05-17T18:42:25.148Z,2.50
2023-05-17T18:44:54.790Z,2.10
2023-05-17T18:47:24.953Z,2.75
2023-05-17T18:49:57.093Z,2.20
2023-05-17T18:52:28.883Z,2.55
2023-05-17T18:54:58.631Z,2.55
2023-05-17T18:57:26.089Z,2.55
2023-05-17T19:00:00.905Z,2.50
2023-05-17T19:02:31.242Z,2.45
2023-05-17T19:05:01.100Z,1.98
2023-05-17T19:07:30.485Z,2.17
2023-05-17T19:10:02.371Z,2.30
2023-05-17T19:12:35.573Z,2.30
2023-05-17T19:15:06.093Z,1.88
2023-05-17T19:17:33.346Z,2.13
2023-05-17T19:20:00.637Z,2.20
2023-05-17T19:22:30.032Z,2.58
2023-05-17T19:25:01.390Z,1.90
2023-05-17T19:27:30.847Z,2.83
2023-05-17T19:30:00.468Z,2.38
2023-05-17T19:32:33.240Z,2.03
2023-05-17T19:35:03.261Z,2.00
2023-05-17T19:37:32.564Z,2.35
2023-05-17T19:40:05.178Z,2.10
2023-05-17T19:42:32.465Z,2.42
2023-05-17T19:45:02.093Z,2.20
2023-05-17T19:47:31.437Z,2.60
2023-05-17T19:49:58.596Z,2.30
2023-05-17T19:52:25.769Z,2.60
2023-05-17T19:54:55.224Z,2.10
2023-05-17T19:57:22.485Z,2.30
2023-05-17T19:59:52.448Z,2.75
2023-05-17T20:02:19.794Z,1.90
2023-05-17T20:04:47.764Z,2.28
2023-05-17T20:07:17.687Z,2.42
2023-05-17T20:09:44.871Z,2.55
2023-05-17T20:12:14.705Z,2.42
2023-05-17T20:14:47.396Z,2.38
2023-05-17T20:17:14.690Z,2.40
2023-05-17T20:19:41.876Z,2.08
2023-05-17T20:22:11.379Z,2.45
2023-05-17T20:24:38.879Z,2.13
2023-05-17T20:27:08.579Z,2.70
2023-05-17T20:29:38.477Z,2.42
2023-05-17T20:32:06.852Z,2.35
2023-05-17T20:34:38.775Z,2.20
2023-05-17T20:37:08.152Z,2.58
2023-05-17T20:39:39.985Z,2.33
2023-05-17T20:42:07.799Z,2.40
2023-05-17T20:44:40.302Z,2.75
2023-05-17T20:47:09.784Z,2.60
2023-05-17T20:49:39.419Z,2.55
2023-05-17T20:52:14.944Z,2.60
2023-05-17T20:54:43.386Z,2.72
2023-05-17T20:57:10.621Z,2.30
2023-05-17T20:59:39.925Z,2.47
2023-05-17T21:02:09.660Z,2.60
2023-05-17T21:04:37.508Z,3.10
2023-05-17T21:07:10.526Z,2.65
2023-05-17T21:09:37.795Z,3.20
2023-05-17T21:12:05.382Z,2.97
2023-05-17T21:14:35.064Z,2.90
2023-05-17T21:17:02.325Z,3.05
2023-05-17T21:19:32.224Z,2.50
2023-05-17T21:22:03.991Z,2.23
2023-05-17T21:24:31.250Z,2.70
2023-05-17T21:26:58.524Z,2.40
2023-05-17T21:29:28.187Z,2.87
2023-05-17T21:31:55.656Z,2.25
2023-05-17T21:34:30.887Z,2.60
2023-05-17T21:36:57.954Z,1.95
2023-05-17T21:39:25.086Z,2.45
2023-05-17T21:41:54.533Z,2.50
2023-05-17T21:44:21.658Z,2.20
2023-05-17T21:46:48.825Z,2.80
2023-05-17T21:49:18.338Z,2.13
2023-05-17T21:51:47.947Z,2.85
2023-05-17T21:54:17.642Z,2.37
2023-05-17T21:56:44.762Z,2.60
2023-05-17T21:59:19.186Z,2.13
2023-05-17T22:01:49.427Z,2.50
2023-05-17T22:04:16.727Z,2.20
2023-05-17T22:06:46.160Z,2.70
2023-05-17T22:09:18.670Z,2.63
2023-05-17T22:11:46.548Z,2.80
2023-05-17T22:14:13.856Z,2.85
2023-05-17T22:16:43.475Z,2.50
2023-05-17T22:19:10.741Z,2.83
2023-05-17T22:21:39.990Z,2.40
2023-05-17T22:24:09.580Z,2.40
2023-05-17T22:26:41.421Z,3.03
2023-05-17T22:29:08.564Z,2.20
2023-05-17T22:31:38.280Z,2.53
2023-05-17T22:34:07.724Z,2.87
2023-05-17T22:36:34.886Z,2.77
2023-05-17T22:39:05.337Z,2.30
2023-05-17T22:41:34.668Z,2.53
2023-05-17T22:44:02.062Z,2.47
2023-05-17T22:46:29.279Z,2.50
2023-05-17T22:49:01.657Z,2.87
2023-05-17T22:51:30.134Z,2.37
2023-05-17T22:53:57.909Z,2.80
2023-05-17T22:56:27.273Z,2.50
2023-05-17T22:58:54.460Z,2.13
2023-05-17T23:01:23.887Z,2.17
2023-05-17T23:03:53.530Z,2.30
2023-05-17T23:06:24.394Z,2.90
2023-05-17T23:08:52.994Z,2.47
2023-05-17T23:11:22.677Z,2.63
2023-05-17T23:13:49.804Z,2.63
2023-05-17T23:16:19.452Z,2.80
2023-05-17T23:18:46.706Z,3.13
2023-05-17T23:21:13.947Z,2.30
2023-05-17T23:23:41.100Z,2.23
2023-05-17T23:26:17.275Z,2.30
2023-05-17T23:28:47.042Z,2.50
2023-05-17T23:31:16.563Z,2.87
2023-05-17T23:33:44.096Z,2.80
2023-05-17T23:36:21.781Z,2.73
2023-05-17T23:38:53.720Z,3.00
2023-05-17T23:41:25.363Z,2.33
2023-05-17T23:43:57.268Z,2.90
2023-05-17T23:46:26.738Z,2.80
2023-05-17T23:48:57.381Z,2.87
2023-05-17T23:51:24.732Z,2.80
2023-05-17T23:53:56.941Z,2.73
2023-05-17T23:56:24.168Z,3.00
2023-05-17T23:58:54.370Z,2.87
